sensor_id;sensor_type;location;lat;lon;timestamp;temperature;humidity
69054;DHT22;56125;52.242;4.756;2024-03-08T00:04:35;17.70;50.00
69054;DHT22;56125;52.242;4.756;2024-03-08T00:09:36;17.70;49.60
69054;DHT22;56125;52.242;4.756;2024-03-08T00:14:37;17.60;49.70
69054;DHT22;56125;52.242;4.756;2024-03-08T00:19:38;17.60;49.30
69054;DHT22;56125;52.242;4.756;2024-03-08T00:24:40;17.60;49.20
69054;DHT22;56125;52.242;4.756;2024-03-08T00:29:41;17.60;49.20
69054;DHT22;56125;52.242;4.756;2024-03-08T00:34:42;17.60;49.30
69054;DHT22;56125;52.242;4.756;2024-03-08T00:39:44;17.60;49.20
69054;DHT22;56125;52.242;4.756;2024-03-08T00:44:45;17.60;49.30
69054;DHT22;56125;52.242;4.756;2024-03-08T00:49:46;17.60;49.40
69054;DHT22;56125;52.242;4.756;2024-03-08T00:54:47;17.60;49.20
69054;DHT22;56125;52.242;4.756;2024-03-08T00:59:48;17.60;49.10
69054;DHT22;56125;52.242;4.756;2024-03-08T01:04:49;17.60;48.90
69054;DHT22;56125;52.242;4.756;2024-03-08T01:09:51;17.60;49.10
69054;DHT22;56125;52.242;4.756;2024-03-08T01:14:52;17.50;49.00
69054;DHT22;56125;52.242;4.756;2024-03-08T01:19:53;17.50;48.60
69054;DHT22;56125;52.242;4.756;2024-03-08T01:24:54;17.50;48.50
69054;DHT22;56125;52.242;4.756;2024-03-08T01:29:55;17.50;48.50
69054;DHT22;56125;52.242;4.756;2024-03-08T01:34:56;17.50;48.40
69054;DHT22;56125;52.242;4.756;2024-03-08T01:39:57;17.50;48.40
69054;DHT22;56125;52.242;4.756;2024-03-08T01:44:58;17.50;48.50
69054;DHT22;56125;52.242;4.756;2024-03-08T01:50:00;17.50;48.30
69054;DHT22;56125;52.242;4.756;2024-03-08T01:55:05;17.50;48.20
69054;DHT22;56125;52.242;4.756;2024-03-08T02:00:08;17.50;48.20
69054;DHT22;56125;52.242;4.756;2024-03-08T02:05:11;17.50;48.20
69054;DHT22;56125;52.242;4.756;2024-03-08T02:10:12;17.50;48.20
69054;DHT22;56125;52.242;4.756;2024-03-08T02:15:13;17.50;47.90
69054;DHT22;56125;52.242;4.756;2024-03-08T02:20:14;17.50;47.80
69054;DHT22;56125;52.242;4.756;2024-03-08T02:25:15;17.50;48.00
69054;DHT22;56125;52.242;4.756;2024-03-08T02:30:16;17.50;47.80
69054;DHT22;56125;52.242;4.756;2024-03-08T02:35:18;17.50;47.80
69054;DHT22;56125;52.242;4.756;2024-03-08T02:40:19;17.50;47.90
69054;DHT22;56125;52.242;4.756;2024-03-08T02:45:20;17.40;47.40
69054;DHT22;56125;52.242;4.756;2024-03-08T02:50:21;17.40;47.50
69054;DHT22;56125;52.242;4.756;2024-03-08T02:55:23;17.40;47.50
69054;DHT22;56125;52.242;4.756;2024-03-08T03:00:27;17.40;47.30
69054;DHT22;56125;52.242;4.756;2024-03-08T03:05:29;17.40;47.30
69054;DHT22;56125;52.242;4.756;2024-03-08T03:10:30;17.40;47.20
69054;DHT22;56125;52.242;4.756;2024-03-08T03:15:32;17.40;47.40
69054;DHT22;56125;52.242;4.756;2024-03-08T03:20:34;17.40;47.10
69054;DHT22;56125;52.242;4.756;2024-03-08T03:25:40;17.40;47.00
69054;DHT22;56125;52.242;4.756;2024-03-08T03:30:42;17.40;47.20
69054;DHT22;56125;52.242;4.756;2024-03-08T03:35:43;17.40;46.90
69054;DHT22;56125;52.242;4.756;2024-03-08T03:40:45;17.40;46.90
69054;DHT22;56125;52.242;4.756;2024-03-08T03:45:46;17.30;47.00
69054;DHT22;56125;52.242;4.756;2024-03-08T03:50:47;17.40;46.80
69054;DHT22;56125;52.242;4.756;2024-03-08T03:55:51;17.30;46.80
69054;DHT22;56125;52.242;4.756;2024-03-08T04:00:52;17.40;46.80
69054;DHT22;56125;52.242;4.756;2024-03-08T04:05:53;17.30;46.80
69054;DHT22;56125;52.242;4.756;2024-03-08T04:10:54;17.30;46.60
69054;DHT22;56125;52.242;4.756;2024-03-08T04:15:55;17.30;46.80
69054;DHT22;56125;52.242;4.756;2024-03-08T04:20:56;17.30;46.60
69054;DHT22;56125;52.242;4.756;2024-03-08T04:25:57;17.30;46.60
69054;DHT22;56125;52.242;4.756;2024-03-08T04:30:58;17.30;46.60
69054;DHT22;56125;52.242;4.756;2024-03-08T04:36:01;17.20;46.40
69054;DHT22;56125;52.242;4.756;2024-03-08T04:41:05;17.30;46.50
69054;DHT22;56125;52.242;4.756;2024-03-08T04:46:06;17.30;46.50
69054;DHT22;56125;52.242;4.756;2024-03-08T04:51:07;17.20;46.40
69054;DHT22;56125;52.242;4.756;2024-03-08T04:56:08;17.20;46.30
69054;DHT22;56125;52.242;4.756;2024-03-08T05:01:09;17.20;46.40
69054;DHT22;56125;52.242;4.756;2024-03-08T05:06:11;17.20;46.30
69054;DHT22;56125;52.242;4.756;2024-03-08T05:11:12;17.20;46.20
69054;DHT22;56125;52.242;4.756;2024-03-08T05:16:15;17.20;46.40
69054;DHT22;56125;52.242;4.756;2024-03-08T05:21:16;17.20;46.20
69054;DHT22;56125;52.242;4.756;2024-03-08T05:26:21;17.20;46.20
69054;DHT22;56125;52.242;4.756;2024-03-08T05:31:23;17.20;46.20
69054;DHT22;56125;52.242;4.756;2024-03-08T05:36:24;17.10;45.90
69054;DHT22;56125;52.242;4.756;2024-03-08T05:41:25;17.10;45.90
69054;DHT22;56125;52.242;4.756;2024-03-08T05:46:26;17.10;46.00
69054;DHT22;56125;52.242;4.756;2024-03-08T05:51:27;17.10;45.90
69054;DHT22;56125;52.242;4.756;2024-03-08T05:56:29;17.10;46.10
69054;DHT22;56125;52.242;4.756;2024-03-08T06:01:30;17.10;46.30
69054;DHT22;56125;52.242;4.756;2024-03-08T06:06:36;17.10;46.00
69054;DHT22;56125;52.242;4.756;2024-03-08T06:11:38;17.10;46.20
69054;DHT22;56125;52.242;4.756;2024-03-08T06:16:39;17.10;46.00
69054;DHT22;56125;52.242;4.756;2024-03-08T06:21:40;17.10;46.00
69054;DHT22;56125;52.242;4.756;2024-03-08T06:26:42;17.10;45.80
69054;DHT22;56125;52.242;4.756;2024-03-08T06:31:43;17.10;45.80
69054;DHT22;56125;52.242;4.756;2024-03-08T06:36:44;17.10;45.60
69054;DHT22;56125;52.242;4.756;2024-03-08T06:41:45;17.10;45.40
69054;DHT22;56125;52.242;4.756;2024-03-08T06:46:47;17.00;45.30
69054;DHT22;56125;52.242;4.756;2024-03-08T06:51:48;17.10;45.40
69054;DHT22;56125;52.242;4.756;2024-03-08T06:56:49;17.10;45.20
69054;DHT22;56125;52.242;4.756;2024-03-08T07:01:51;17.10;45.20
69054;DHT22;56125;52.242;4.756;2024-03-08T07:06:58;17.10;45.00
69054;DHT22;56125;52.242;4.756;2024-03-08T07:11:59;17.10;45.10
69054;DHT22;56125;52.242;4.756;2024-03-08T07:17:00;17.20;45.10
69054;DHT22;56125;52.242;4.756;2024-03-08T07:22:01;17.20;44.70
69054;DHT22;56125;52.242;4.756;2024-03-08T07:27:04;17.20;44.50
69054;DHT22;56125;52.242;4.756;2024-03-08T07:32:06;17.20;44.90
69054;DHT22;56125;52.242;4.756;2024-03-08T07:37:22;17.20;44.60
69054;DHT22;56125;52.242;4.756;2024-03-08T07:42:23;17.30;44.90
69054;DHT22;56125;52.242;4.756;2024-03-08T07:47:24;17.30;44.70
69054;DHT22;56125;52.242;4.756;2024-03-08T07:52:25;17.30;44.40
69054;DHT22;56125;52.242;4.756;2024-03-08T07:57:27;17.30;44.40
69054;DHT22;56125;52.242;4.756;2024-03-08T08:02:28;17.40;44.30
69054;DHT22;56125;52.242;4.756;2024-03-08T08:07:29;17.40;43.90
69054;DHT22;56125;52.242;4.756;2024-03-08T08:12:30;17.50;43.90
69054;DHT22;56125;52.242;4.756;2024-03-08T08:17:31;17.50;43.80
69054;DHT22;56125;52.242;4.756;2024-03-08T08:22:32;17.60;43.80
69054;DHT22;56125;52.242;4.756;2024-03-08T08:27:33;17.60;43.70
69054;DHT22;56125;52.242;4.756;2024-03-08T08:32:38;17.60;43.30
69054;DHT22;56125;52.242;4.756;2024-03-08T08:37:43;17.60;43.10
69054;DHT22;56125;52.242;4.756;2024-03-08T08:42:45;17.70;42.80
69054;DHT22;56125;52.242;4.756;2024-03-08T08:47:49;17.70;42.90
69054;DHT22;56125;52.242;4.756;2024-03-08T08:52:50;17.80;42.60
69054;DHT22;56125;52.242;4.756;2024-03-08T08:57:52;17.70;42.70
69054;DHT22;56125;52.242;4.756;2024-03-08T09:02:53;17.80;42.30
69054;DHT22;56125;52.242;4.756;2024-03-08T09:07:56;17.80;42.50
69054;DHT22;56125;52.242;4.756;2024-03-08T09:12:57;17.80;42.20
69054;DHT22;56125;52.242;4.756;2024-03-08T09:17:58;17.80;42.50
69054;DHT22;56125;52.242;4.756;2024-03-08T09:22:59;17.90;43.10
69054;DHT22;56125;52.242;4.756;2024-03-08T09:28:01;17.90;42.20
69054;DHT22;56125;52.242;4.756;2024-03-08T09:33:02;17.90;41.80
69054;DHT22;56125;52.242;4.756;2024-03-08T09:38:03;17.90;42.20
69054;DHT22;56125;52.242;4.756;2024-03-08T09:43:05;18.00;41.80
69054;DHT22;56125;52.242;4.756;2024-03-08T09:48:11;18.00;42.30
69054;DHT22;56125;52.242;4.756;2024-03-08T09:53:15;18.00;41.70
69054;DHT22;56125;52.242;4.756;2024-03-08T09:58:17;18.00;42.40
69054;DHT22;56125;52.242;4.756;2024-03-08T10:03:33;18.10;41.70
69054;DHT22;56125;52.242;4.756;2024-03-08T10:08:35;18.10;42.10
69054;DHT22;56125;52.242;4.756;2024-03-08T10:13:37;18.10;42.70
69054;DHT22;56125;52.242;4.756;2024-03-08T10:18:38;18.10;42.10
69054;DHT22;56125;52.242;4.756;2024-03-08T10:23:39;18.10;41.70
69054;DHT22;56125;52.242;4.756;2024-03-08T10:28:44;18.10;41.80
69054;DHT22;56125;52.242;4.756;2024-03-08T10:33:46;18.20;41.80
69054;DHT22;56125;52.242;4.756;2024-03-08T10:38:51;18.20;41.80
69054;DHT22;56125;52.242;4.756;2024-03-08T10:49:38;18.30;42.10
69054;DHT22;56125;52.242;4.756;2024-03-08T10:54:41;18.30;42.00
69054;DHT22;56125;52.242;4.756;2024-03-08T10:59:45;18.30;41.80
69054;DHT22;56125;52.242;4.756;2024-03-08T11:04:50;18.40;42.00
69054;DHT22;56125;52.242;4.756;2024-03-08T11:09:51;18.40;41.70
69054;DHT22;56125;52.242;4.756;2024-03-08T11:14:54;18.40;41.80
69054;DHT22;56125;52.242;4.756;2024-03-08T11:19:56;18.40;41.70
69054;DHT22;56125;52.242;4.756;2024-03-08T11:25:03;18.50;41.70
69054;DHT22;56125;52.242;4.756;2024-03-08T11:30:09;18.50;41.70
69054;DHT22;56125;52.242;4.756;2024-03-08T11:35:20;18.50;41.60
69054;DHT22;56125;52.242;4.756;2024-03-08T11:40:21;18.50;41.50
69054;DHT22;56125;52.242;4.756;2024-03-08T11:45:23;18.60;41.70
69054;DHT22;56125;52.242;4.756;2024-03-08T11:50:24;18.60;41.70
69054;DHT22;56125;52.242;4.756;2024-03-08T11:55:25;18.60;41.70
69054;DHT22;56125;52.242;4.756;2024-03-08T12:00:26;18.60;42.20
69054;DHT22;56125;52.242;4.756;2024-03-08T12:05:32;18.60;41.60
69054;DHT22;56125;52.242;4.756;2024-03-08T12:10:34;18.60;42.30
69054;DHT22;56125;52.242;4.756;2024-03-08T12:15:36;18.50;42.00
69054;DHT22;56125;52.242;4.756;2024-03-08T12:20:37;18.60;41.90
69054;DHT22;56125;52.242;4.756;2024-03-08T12:25:40;18.50;41.80
69054;DHT22;56125;52.242;4.756;2024-03-08T12:30:47;18.50;41.80
69054;DHT22;56125;52.242;4.756;2024-03-08T12:35:52;18.40;43.00
69054;DHT22;56125;52.242;4.756;2024-03-08T12:41:01;18.40;43.90
69054;DHT22;56125;52.242;4.756;2024-03-08T12:46:05;18.40;45.00
69054;DHT22;56125;52.242;4.756;2024-03-08T12:51:09;18.40;43.80
69054;DHT22;56125;52.242;4.756;2024-03-08T12:56:12;18.40;43.50
69054;DHT22;56125;52.242;4.756;2024-03-08T13:01:13;18.40;43.20
69054;DHT22;56125;52.242;4.756;2024-03-08T13:06:14;18.40;43.50
69054;DHT22;56125;52.242;4.756;2024-03-08T13:11:15;18.30;42.60
69054;DHT22;56125;52.242;4.756;2024-03-08T13:16:18;18.30;42.80
69054;DHT22;56125;52.242;4.756;2024-03-08T13:21:20;18.30;43.30
69054;DHT22;56125;52.242;4.756;2024-03-08T13:26:24;18.30;43.30
69054;DHT22;56125;52.242;4.756;2024-03-08T13:31:26;18.40;43.20
69054;DHT22;56125;52.242;4.756;2024-03-08T13:36:28;18.30;43.20
69054;DHT22;56125;52.242;4.756;2024-03-08T13:41:40;18.30;43.10
69054;DHT22;56125;52.242;4.756;2024-03-08T13:46:41;18.30;42.80
69054;DHT22;56125;52.242;4.756;2024-03-08T13:51:42;18.30;42.80
69054;DHT22;56125;52.242;4.756;2024-03-08T13:56:44;18.30;42.80
69054;DHT22;56125;52.242;4.756;2024-03-08T14:01:45;18.30;44.00
69054;DHT22;56125;52.242;4.756;2024-03-08T14:06:46;18.30;44.40
69054;DHT22;56125;52.242;4.756;2024-03-08T14:11:47;18.40;43.80
69054;DHT22;56125;52.242;4.756;2024-03-08T14:16:49;18.50;43.70
69054;DHT22;56125;52.242;4.756;2024-03-08T14:21:55;18.50;44.00
69054;DHT22;56125;52.242;4.756;2024-03-08T14:26:56;18.50;44.50
69054;DHT22;56125;52.242;4.756;2024-03-08T14:31:58;18.50;44.60
69054;DHT22;56125;52.242;4.756;2024-03-08T14:37:00;18.50;44.50
69054;DHT22;56125;52.242;4.756;2024-03-08T14:42:01;18.50;50.40
69054;DHT22;56125;52.242;4.756;2024-03-08T14:47:04;18.60;50.70
69054;DHT22;56125;52.242;4.756;2024-03-08T14:52:06;18.60;49.50
69054;DHT22;56125;52.242;4.756;2024-03-08T14:57:27;18.60;49.70
69054;DHT22;56125;52.242;4.756;2024-03-08T15:02:29;18.70;48.80
69054;DHT22;56125;52.242;4.756;2024-03-08T15:07:30;18.70;48.80
69054;DHT22;56125;52.242;4.756;2024-03-08T15:12:31;18.60;48.60
69054;DHT22;56125;52.242;4.756;2024-03-08T15:17:32;18.60;48.30
69054;DHT22;56125;52.242;4.756;2024-03-08T15:22:33;18.60;48.00
69054;DHT22;56125;52.242;4.756;2024-03-08T15:27:34;18.60;47.70
69054;DHT22;56125;52.242;4.756;2024-03-08T15:32:44;18.60;47.80
69054;DHT22;56125;52.242;4.756;2024-03-08T15:37:45;18.60;47.40
69054;DHT22;56125;52.242;4.756;2024-03-08T15:42:56;18.60;47.30
69054;DHT22;56125;52.242;4.756;2024-03-08T15:47:57;18.50;47.00
69054;DHT22;56125;52.242;4.756;2024-03-08T15:52:59;18.50;46.80
69054;DHT22;56125;52.242;4.756;2024-03-08T15:58:00;18.50;46.80
69054;DHT22;56125;52.242;4.756;2024-03-08T16:03:05;18.50;46.70
69054;DHT22;56125;52.242;4.756;2024-03-08T16:08:13;18.50;46.90
69054;DHT22;56125;52.242;4.756;2024-03-08T16:13:18;18.50;46.70
69054;DHT22;56125;52.242;4.756;2024-03-08T16:18:21;18.40;46.60
69054;DHT22;56125;52.242;4.756;2024-03-08T16:23:24;18.40;46.50
69054;DHT22;56125;52.242;4.756;2024-03-08T16:28:25;18.40;46.00
69054;DHT22;56125;52.242;4.756;2024-03-08T16:33:35;18.40;46.50
69054;DHT22;56125;52.242;4.756;2024-03-08T16:38:36;18.30;46.30
69054;DHT22;56125;52.242;4.756;2024-03-08T16:43:39;18.30;45.80
69054;DHT22;56125;52.242;4.756;2024-03-08T16:48:40;18.30;46.10
69054;DHT22;56125;52.242;4.756;2024-03-08T16:53:41;18.30;45.80
69054;DHT22;56125;52.242;4.756;2024-03-08T16:58:43;18.30;46.20
69054;DHT22;56125;52.242;4.756;2024-03-08T17:03:45;18.30;46.20
69054;DHT22;56125;52.242;4.756;2024-03-08T17:08:47;18.20;46.20
69054;DHT22;56125;52.242;4.756;2024-03-08T17:13:48;18.20;46.20
69054;DHT22;56125;52.242;4.756;2024-03-08T17:18:49;18.20;46.10
69054;DHT22;56125;52.242;4.756;2024-03-08T17:23:51;18.20;46.20
69054;DHT22;56125;52.242;4.756;2024-03-08T17:28:52;18.20;46.40
69054;DHT22;56125;52.242;4.756;2024-03-08T17:33:54;18.20;46.60
69054;DHT22;56125;52.242;4.756;2024-03-08T17:38:56;18.20;46.60
69054;DHT22;56125;52.242;4.756;2024-03-08T17:43:58;18.10;46.60
69054;DHT22;56125;52.242;4.756;2024-03-08T17:48:59;18.10;46.60
69054;DHT22;56125;52.242;4.756;2024-03-08T17:54:00;18.10;46.50
69054;DHT22;56125;52.242;4.756;2024-03-08T17:59:03;18.10;47.00
69054;DHT22;56125;52.242;4.756;2024-03-08T18:04:09;18.20;47.10
69054;DHT22;56125;52.242;4.756;2024-03-08T18:09:11;18.10;46.70
69054;DHT22;56125;52.242;4.756;2024-03-08T18:14:13;18.20;46.80
69054;DHT22;56125;52.242;4.756;2024-03-08T18:19:14;18.10;46.60
69054;DHT22;56125;52.242;4.756;2024-03-08T18:24:20;18.10;46.50
69054;DHT22;56125;52.242;4.756;2024-03-08T18:29:21;18.10;46.40
69054;DHT22;56125;52.242;4.756;2024-03-08T18:34:22;18.10;46.20
69054;DHT22;56125;52.242;4.756;2024-03-08T18:39:24;18.00;45.60
69054;DHT22;56125;52.242;4.756;2024-03-08T18:44:27;18.00;45.40
69054;DHT22;56125;52.242;4.756;2024-03-08T18:49:28;18.00;45.50
69054;DHT22;56125;52.242;4.756;2024-03-08T18:54:30;17.90;45.40
69054;DHT22;56125;52.242;4.756;2024-03-08T18:59:31;17.90;45.30
69054;DHT22;56125;52.242;4.756;2024-03-08T19:04:32;17.80;45.20
69054;DHT22;56125;52.242;4.756;2024-03-08T19:09:33;17.80;45.20
69054;DHT22;56125;52.242;4.756;2024-03-08T19:14:34;17.80;45.30
69054;DHT22;56125;52.242;4.756;2024-03-08T19:19:39;17.80;45.00
69054;DHT22;56125;52.242;4.756;2024-03-08T19:24:40;17.80;45.10
69054;DHT22;56125;52.242;4.756;2024-03-08T19:29:41;17.70;44.90
69054;DHT22;56125;52.242;4.756;2024-03-08T19:34:42;17.70;44.80
69054;DHT22;56125;52.242;4.756;2024-03-08T19:39:43;17.70;44.80
69054;DHT22;56125;52.242;4.756;2024-03-08T19:44:45;17.70;44.70
69054;DHT22;56125;52.242;4.756;2024-03-08T19:49:49;17.70;44.90
69054;DHT22;56125;52.242;4.756;2024-03-08T19:54:50;17.60;44.90
69054;DHT22;56125;52.242;4.756;2024-03-08T19:59:51;17.60;44.80
69054;DHT22;56125;52.242;4.756;2024-03-08T20:04:53;17.60;44.70
69054;DHT22;56125;52.242;4.756;2024-03-08T20:09:56;17.60;44.70
69054;DHT22;56125;52.242;4.756;2024-03-08T20:14:59;17.60;44.70
69054;DHT22;56125;52.242;4.756;2024-03-08T20:20:01;17.60;44.50
69054;DHT22;56125;52.242;4.756;2024-03-08T20:25:02;17.60;44.70
69054;DHT22;56125;52.242;4.756;2024-03-08T20:30:03;17.60;44.60
69054;DHT22;56125;52.242;4.756;2024-03-08T20:35:04;17.60;44.60
69054;DHT22;56125;52.242;4.756;2024-03-08T20:40:06;17.50;44.50
69054;DHT22;56125;52.242;4.756;2024-03-08T20:45:07;17.50;44.30
69054;DHT22;56125;52.242;4.756;2024-03-08T20:50:09;17.50;44.50
69054;DHT22;56125;52.242;4.756;2024-03-08T20:55:13;17.50;44.50
69054;DHT22;56125;52.242;4.756;2024-03-08T21:00:21;17.50;44.40
69054;DHT22;56125;52.242;4.756;2024-03-08T21:05:41;17.50;45.00
69054;DHT22;56125;52.242;4.756;2024-03-08T21:10:42;17.50;45.20
69054;DHT22;56125;52.242;4.756;2024-03-08T21:15:46;17.50;45.20
69054;DHT22;56125;52.242;4.756;2024-03-08T21:20:47;17.50;45.10
69054;DHT22;56125;52.242;4.756;2024-03-08T21:25:49;17.50;45.10
69054;DHT22;56125;52.242;4.756;2024-03-08T21:30:50;17.50;45.00
69054;DHT22;56125;52.242;4.756;2024-03-08T21:35:51;17.40;44.90
69054;DHT22;56125;52.242;4.756;2024-03-08T21:40:52;17.50;45.00
69054;DHT22;56125;52.242;4.756;2024-03-08T21:45:54;17.40;44.90
69054;DHT22;56125;52.242;4.756;2024-03-08T21:50:55;17.40;44.60
69054;DHT22;56125;52.242;4.756;2024-03-08T21:55:56;17.40;44.80
69054;DHT22;56125;52.242;4.756;2024-03-08T22:00:57;17.40;44.90
69054;DHT22;56125;52.242;4.756;2024-03-08T22:05:59;17.40;44.70
69054;DHT22;56125;52.242;4.756;2024-03-08T22:11:00;17.40;44.60
69054;DHT22;56125;52.242;4.756;2024-03-08T22:16:01;17.40;44.70
69054;DHT22;56125;52.242;4.756;2024-03-08T22:21:04;17.40;44.60
69054;DHT22;56125;52.242;4.756;2024-03-08T22:26:07;17.40;44.70
69054;DHT22;56125;52.242;4.756;2024-03-08T22:31:13;17.40;44.70
69054;DHT22;56125;52.242;4.756;2024-03-08T22:36:14;17.30;44.50
69054;DHT22;56125;52.242;4.756;2024-03-08T22:41:16;17.30;44.60
69054;DHT22;56125;52.242;4.756;2024-03-08T22:46:17;17.30;44.50
69054;DHT22;56125;52.242;4.756;2024-03-08T22:51:19;17.30;44.50
69054;DHT22;56125;52.242;4.756;2024-03-08T22:56:26;17.30;44.60
69054;DHT22;56125;52.242;4.756;2024-03-08T23:01:27;17.30;44.50
69054;DHT22;56125;52.242;4.756;2024-03-08T23:06:34;17.30;44.50
69054;DHT22;56125;52.242;4.756;2024-03-08T23:11:36;17.30;44.40
69054;DHT22;56125;52.242;4.756;2024-03-08T23:16:38;17.30;44.50
69054;DHT22;56125;52.242;4.756;2024-03-08T23:21:40;17.20;44.40
69054;DHT22;56125;52.242;4.756;2024-03-08T23:26:41;17.20;44.30
69054;DHT22;56125;52.242;4.756;2024-03-08T23:31:42;17.20;44.40
69054;DHT22;56125;52.242;4.756;2024-03-08T23:36:45;17.20;44.30
69054;DHT22;56125;52.242;4.756;2024-03-08T23:41:49;17.20;44.30
69054;DHT22;56125;52.242;4.756;2024-03-08T23:46:50;17.30;44.20
69054;DHT22;56125;52.242;4.756;2024-03-08T23:51:51;17.20;44.40
69054;DHT22;56125;52.242;4.756;2024-03-08T23:56:52;17.20;44.30
